sensor_id;sensor_type;location;lat;lon;timestamp;P1;durP1;ratioP1;P2;durP2;ratioP2
76953;SDS011;65893;51.698;-0.292;2023-07-29T01:43:14;5.82;;;1.20;;
76953;SDS011;65893;51.698;-0.292;2023-07-29T01:45:41;4.93;;;1.35;;
76953;SDS011;65893;51.698;-0.292;2023-07-29T01:48:07;4.43;;;1.48;;
76953;SDS011;65893;51.698;-0.292;2023-07-29T01:50:33;6.20;;;1.80;;
76953;SDS011;65893;51.698;-0.292;2023-07-29T01:53:00;6.75;;;2.22;;
76953;SDS011;65893;51.698;-0.292;2023-07-29T01:55:26;4.88;;;1.95;;
76953;SDS011;65893;51.698;-0.292;2023-07-29T01:57:52;9.20;;;1.83;;
76953;SDS011;65893;51.698;-0.292;2023-07-29T02:00:18;6.93;;;1.88;;
76953;SDS011;65893;51.698;-0.292;2023-07-29T02:02:44;8.23;;;2.35;;
76953;SDS011;65893;51.698;-0.292;2023-07-29T02:05:11;6.97;;;2.88;;
76953;SDS011;65893;51.698;-0.292;2023-07-29T02:07:37;7.55;;;1.77;;
76953;SDS011;65893;51.698;-0.292;2023-07-29T02:10:03;4.40;;;1.35;;
76953;SDS011;65893;51.698;-0.292;2023-07-29T02:12:29;8.68;;;2.17;;
76953;SDS011;65893;51.698;-0.292;2023-07-29T02:14:55;9.63;;;3.17;;
76953;SDS011;65893;51.698;-0.292;2023-07-29T02:17:21;6.88;;;2.45;;
76953;SDS011;65893;51.698;-0.292;2023-07-29T02:19:47;6.38;;;1.95;;
76953;SDS011;65893;51.698;-0.292;2023-07-29T02:22:13;14.63;;;3.58;;
76953;SDS011;65893;51.698;-0.292;2023-07-29T02:24:40;8.50;;;1.75;;
76953;SDS011;65893;51.698;-0.292;2023-07-29T02:27:06;10.13;;;2.40;;
76953;SDS011;65893;51.698;-0.292;2023-07-29T02:29:32;6.03;;;2.40;;
76953;SDS011;65893;51.698;-0.292;2023-07-29T02:31:59;9.70;;;2.13;;
76953;SDS011;65893;51.698;-0.292;2023-07-29T02:34:25;5.13;;;1.92;;
76953;SDS011;65893;51.698;-0.292;2023-07-29T02:36:51;10.57;;;2.53;;
76953;SDS011;65893;51.698;-0.292;2023-07-29T02:39:17;5.55;;;1.98;;
76953;SDS011;65893;51.698;-0.292;2023-07-29T02:41:43;6.30;;;2.17;;
76953;SDS011;65893;51.698;-0.292;2023-07-29T02:44:09;9.23;;;2.10;;
76953;SDS011;65893;51.698;-0.292;2023-07-29T02:46:35;7.35;;;2.25;;
76953;SDS011;65893;51.698;-0.292;2023-07-29T02:49:01;6.22;;;2.05;;
76953;SDS011;65893;51.698;-0.292;2023-07-29T02:51:28;7.57;;;2.38;;
76953;SDS011;65893;51.698;-0.292;2023-07-29T02:53:54;8.82;;;2.55;;
76953;SDS011;65893;51.698;-0.292;2023-07-29T02:56:20;3.95;;;1.77;;
76953;SDS011;65893;51.698;-0.292;2023-07-29T02:58:46;7.97;;;2.42;;
76953;SDS011;65893;51.698;-0.292;2023-07-29T03:01:12;10.23;;;3.03;;
76953;SDS011;65893;51.698;-0.292;2023-07-29T03:03:38;9.60;;;2.75;;
76953;SDS011;65893;51.698;-0.292;2023-07-29T03:06:05;11.20;;;2.40;;
76953;SDS011;65893;51.698;-0.292;2023-07-29T03:08:31;9.18;;;2.88;;
76953;SDS011;65893;51.698;-0.292;2023-07-29T03:10:57;7.95;;;2.55;;
76953;SDS011;65893;51.698;-0.292;2023-07-29T03:13:24;7.97;;;2.53;;
76953;SDS011;65893;51.698;-0.292;2023-07-29T03:15:50;8.80;;;3.05;;
76953;SDS011;65893;51.698;-0.292;2023-07-29T03:18:17;7.03;;;2.63;;
76953;SDS011;65893;51.698;-0.292;2023-07-29T03:20:42;8.40;;;2.20;;
76953;SDS011;65893;51.698;-0.292;2023-07-29T03:23:09;9.40;;;2.08;;
76953;SDS011;65893;51.698;-0.292;2023-07-29T03:25:34;7.90;;;2.50;;
76953;SDS011;65893;51.698;-0.292;2023-07-29T03:28:00;11.25;;;2.45;;
76953;SDS011;65893;51.698;-0.292;2023-07-29T03:30:26;8.68;;;2.70;;
76953;SDS011;65893;51.698;-0.292;2023-07-29T03:32:52;7.40;;;2.28;;
76953;SDS011;65893;51.698;-0.292;2023-07-29T03:35:19;11.80;;;3.08;;
76953;SDS011;65893;51.698;-0.292;2023-07-29T03:37:45;10.80;;;2.80;;
76953;SDS011;65893;51.698;-0.292;2023-07-29T03:40:10;6.07;;;2.40;;
76953;SDS011;65893;51.698;-0.292;2023-07-29T03:42:37;9.20;;;2.67;;
76953;SDS011;65893;51.698;-0.292;2023-07-29T03:45:03;9.95;;;2.10;;
76953;SDS011;65893;51.698;-0.292;2023-07-29T03:47:29;9.82;;;2.50;;
76953;SDS011;65893;51.698;-0.292;2023-07-29T03:49:55;9.98;;;2.70;;
76953;SDS011;65893;51.698;-0.292;2023-07-29T03:52:21;8.60;;;2.75;;
76953;SDS011;65893;51.698;-0.292;2023-07-29T03:54:47;8.68;;;2.65;;
76953;SDS011;65893;51.698;-0.292;2023-07-29T03:57:13;8.82;;;2.65;;
76953;SDS011;65893;51.698;-0.292;2023-07-29T03:59:39;5.80;;;2.30;;
76953;SDS011;65893;51.698;-0.292;2023-07-29T04:02:05;11.13;;;3.13;;
76953;SDS011;65893;51.698;-0.292;2023-07-29T04:04:31;7.43;;;2.85;;
76953;SDS011;65893;51.698;-0.292;2023-07-29T04:06:57;11.20;;;3.25;;
76953;SDS011;65893;51.698;-0.292;2023-07-29T04:09:23;11.82;;;2.97;;
76953;SDS011;65893;51.698;-0.292;2023-07-29T04:11:49;8.77;;;2.72;;
76953;SDS011;65893;51.698;-0.292;2023-07-29T04:14:15;10.20;;;2.92;;
76953;SDS011;65893;51.698;-0.292;2023-07-29T04:16:41;6.60;;;2.20;;
76953;SDS011;65893;51.698;-0.292;2023-07-29T04:19:07;13.60;;;2.53;;
76953;SDS011;65893;51.698;-0.292;2023-07-29T04:21:33;9.95;;;3.10;;
76953;SDS011;65893;51.698;-0.292;2023-07-29T04:23:59;6.25;;;2.20;;
76953;SDS011;65893;51.698;-0.292;2023-07-29T04:26:26;11.43;;;3.85;;
76953;SDS011;65893;51.698;-0.292;2023-07-29T04:28:52;9.00;;;2.63;;
76953;SDS011;65893;51.698;-0.292;2023-07-29T04:31:18;11.35;;;3.10;;
76953;SDS011;65893;51.698;-0.292;2023-07-29T04:33:44;8.35;;;2.95;;
76953;SDS011;65893;51.698;-0.292;2023-07-29T04:36:10;10.13;;;2.85;;
76953;SDS011;65893;51.698;-0.292;2023-07-29T04:38:36;8.73;;;2.17;;
76953;SDS011;65893;51.698;-0.292;2023-07-29T04:41:03;9.18;;;2.65;;
76953;SDS011;65893;51.698;-0.292;2023-07-29T04:43:32;6.93;;;2.22;;
76953;SDS011;65893;51.698;-0.292;2023-07-29T04:45:58;9.18;;;2.58;;
76953;SDS011;65893;51.698;-0.292;2023-07-29T04:48:24;7.53;;;2.30;;
76953;SDS011;65893;51.698;-0.292;2023-07-29T04:50:50;9.88;;;2.92;;
76953;SDS011;65893;51.698;-0.292;2023-07-29T04:53:16;9.18;;;2.53;;
76953;SDS011;65893;51.698;-0.292;2023-07-29T04:55:42;9.98;;;2.83;;
76953;SDS011;65893;51.698;-0.292;2023-07-29T04:58:08;9.40;;;2.85;;
76953;SDS011;65893;51.698;-0.292;2023-07-29T05:00:34;12.05;;;2.95;;
76953;SDS011;65893;51.698;-0.292;2023-07-29T05:03:00;11.88;;;2.92;;
76953;SDS011;65893;51.698;-0.292;2023-07-29T05:05:27;8.27;;;3.00;;
76953;SDS011;65893;51.698;-0.292;2023-07-29T05:07:53;8.57;;;2.47;;
76953;SDS011;65893;51.698;-0.292;2023-07-29T05:10:19;10.95;;;2.83;;
76953;SDS011;65893;51.698;-0.292;2023-07-29T05:12:45;10.63;;;3.03;;
76953;SDS011;65893;51.698;-0.292;2023-07-29T05:15:11;9.73;;;3.10;;
76953;SDS011;65893;51.698;-0.292;2023-07-29T05:17:37;7.78;;;3.13;;
76953;SDS011;65893;51.698;-0.292;2023-07-29T05:20:03;7.28;;;2.40;;
76953;SDS011;65893;51.698;-0.292;2023-07-29T05:22:29;9.32;;;2.35;;
76953;SDS011;65893;51.698;-0.292;2023-07-29T05:24:55;9.20;;;2.40;;
76953;SDS011;65893;51.698;-0.292;2023-07-29T05:27:21;6.93;;;2.63;;
76953;SDS011;65893;51.698;-0.292;2023-07-29T05:29:47;11.25;;;2.35;;
76953;SDS011;65893;51.698;-0.292;2023-07-29T05:32:13;9.25;;;3.15;;
76953;SDS011;65893;51.698;-0.292;2023-07-29T05:34:39;13.15;;;3.25;;
76953;SDS011;65893;51.698;-0.292;2023-07-29T05:37:05;11.43;;;2.60;;
76953;SDS011;65893;51.698;-0.292;2023-07-29T05:39:31;13.77;;;3.72;;
76953;SDS011;65893;51.698;-0.292;2023-07-29T05:41:58;7.88;;;2.80;;
76953;SDS011;65893;51.698;-0.292;2023-07-29T05:44:27;9.65;;;2.47;;
76953;SDS011;65893;51.698;-0.292;2023-07-29T05:46:54;13.25;;;3.60;;
76953;SDS011;65893;51.698;-0.292;2023-07-29T05:49:20;8.18;;;2.95;;
76953;SDS011;65893;51.698;-0.292;2023-07-29T05:51:46;10.25;;;3.33;;
76953;SDS011;65893;51.698;-0.292;2023-07-29T05:54:12;8.70;;;2.60;;
76953;SDS011;65893;51.698;-0.292;2023-07-29T05:56:38;11.27;;;3.40;;
76953;SDS011;65893;51.698;-0.292;2023-07-29T05:59:04;8.65;;;3.97;;
76953;SDS011;65893;51.698;-0.292;2023-07-29T06:01:30;10.32;;;2.80;;
76953;SDS011;65893;51.698;-0.292;2023-07-29T06:03:56;7.80;;;2.92;;
76953;SDS011;65893;51.698;-0.292;2023-07-29T06:06:22;9.88;;;2.70;;
76953;SDS011;65893;51.698;-0.292;2023-07-29T06:08:49;8.23;;;2.78;;
76953;SDS011;65893;51.698;-0.292;2023-07-29T06:11:15;8.32;;;2.75;;
76953;SDS011;65893;51.698;-0.292;2023-07-29T06:13:41;9.98;;;3.03;;
76953;SDS011;65893;51.698;-0.292;2023-07-29T06:16:07;8.73;;;2.67;;
76953;SDS011;65893;51.698;-0.292;2023-07-29T06:18:33;6.65;;;2.53;;
76953;SDS011;65893;51.698;-0.292;2023-07-29T06:20:59;10.35;;;3.03;;
76953;SDS011;65893;51.698;-0.292;2023-07-29T06:23:25;10.95;;;2.45;;
76953;SDS011;65893;51.698;-0.292;2023-07-29T06:25:51;10.88;;;2.80;;
76953;SDS011;65893;51.698;-0.292;2023-07-29T06:28:17;6.40;;;2.42;;
76953;SDS011;65893;51.698;-0.292;2023-07-29T06:30:43;7.50;;;1.90;;
76953;SDS011;65893;51.698;-0.292;2023-07-29T06:33:09;11.05;;;3.45;;
76953;SDS011;65893;51.698;-0.292;2023-07-29T06:35:35;9.25;;;2.55;;
76953;SDS011;65893;51.698;-0.292;2023-07-29T06:38:01;7.53;;;2.40;;
76953;SDS011;65893;51.698;-0.292;2023-07-29T06:40:27;14.60;;;3.53;;
76953;SDS011;65893;51.698;-0.292;2023-07-29T06:42:53;9.05;;;2.70;;
76953;SDS011;65893;51.698;-0.292;2023-07-29T06:45:19;10.02;;;2.67;;
76953;SDS011;65893;51.698;-0.292;2023-07-29T06:47:45;9.05;;;2.88;;
76953;SDS011;65893;51.698;-0.292;2023-07-29T06:50:12;15.52;;;2.65;;
76953;SDS011;65893;51.698;-0.292;2023-07-29T06:52:37;10.45;;;3.10;;
76953;SDS011;65893;51.698;-0.292;2023-07-29T06:55:05;9.70;;;2.53;;
76953;SDS011;65893;51.698;-0.292;2023-07-29T06:57:31;6.40;;;2.33;;
76953;SDS011;65893;51.698;-0.292;2023-07-29T06:59:57;7.45;;;2.40;;
76953;SDS011;65893;51.698;-0.292;2023-07-29T07:02:23;7.35;;;2.15;;
76953;SDS011;65893;51.698;-0.292;2023-07-29T07:04:49;7.18;;;2.30;;
76953;SDS011;65893;51.698;-0.292;2023-07-29T07:07:17;10.00;;;2.30;;
76953;SDS011;65893;51.698;-0.292;2023-07-29T07:09:43;12.70;;;2.63;;
76953;SDS011;65893;51.698;-0.292;2023-07-29T07:12:09;11.02;;;3.00;;
76953;SDS011;65893;51.698;-0.292;2023-07-29T07:14:36;7.85;;;2.42;;
76953;SDS011;65893;51.698;-0.292;2023-07-29T07:17:03;10.57;;;2.90;;
76953;SDS011;65893;51.698;-0.292;2023-07-29T07:19:29;7.53;;;2.40;;
76953;SDS011;65893;51.698;-0.292;2023-07-29T07:21:55;10.20;;;2.38;;
76953;SDS011;65893;51.698;-0.292;2023-07-29T07:24:21;6.80;;;2.42;;
76953;SDS011;65893;51.698;-0.292;2023-07-29T07:26:47;5.65;;;2.10;;
76953;SDS011;65893;51.698;-0.292;2023-07-29T07:29:14;17.27;;;4.07;;
76953;SDS011;65893;51.698;-0.292;2023-07-29T07:31:40;13.48;;;2.60;;
76953;SDS011;65893;51.698;-0.292;2023-07-29T07:34:06;6.60;;;2.70;;
76953;SDS011;65893;51.698;-0.292;2023-07-29T07:36:32;6.30;;;1.73;;
76953;SDS011;65893;51.698;-0.292;2023-07-29T07:38:58;5.15;;;1.83;;
76953;SDS011;65893;51.698;-0.292;2023-07-29T07:41:24;5.90;;;2.75;;
76953;SDS011;65893;51.698;-0.292;2023-07-29T07:43:50;6.80;;;1.88;;
76953;SDS011;65893;51.698;-0.292;2023-07-29T07:46:16;6.57;;;1.83;;
76953;SDS011;65893;51.698;-0.292;2023-07-29T07:48:42;9.10;;;2.72;;
76953;SDS011;65893;51.698;-0.292;2023-07-29T07:51:11;14.90;;;2.47;;
76953;SDS011;65893;51.698;-0.292;2023-07-29T07:53:37;11.48;;;2.00;;
76953;SDS011;65893;51.698;-0.292;2023-07-29T07:56:03;7.50;;;1.80;;
76953;SDS011;65893;51.698;-0.292;2023-07-29T07:58:29;9.18;;;2.38;;
76953;SDS011;65893;51.698;-0.292;2023-07-29T08:01:05;7.07;;;1.92;;
76953;SDS011;65893;51.698;-0.292;2023-07-29T08:03:31;11.55;;;2.40;;
76953;SDS011;65893;51.698;-0.292;2023-07-29T08:05:58;7.97;;;2.25;;
76953;SDS011;65893;51.698;-0.292;2023-07-29T08:08:24;10.15;;;2.70;;
76953;SDS011;65893;51.698;-0.292;2023-07-29T08:10:52;8.15;;;1.95;;
76953;SDS011;65893;51.698;-0.292;2023-07-29T08:13:18;5.47;;;1.73;;
76953;SDS011;65893;51.698;-0.292;2023-07-29T08:15:51;11.55;;;3.17;;
76953;SDS011;65893;51.698;-0.292;2023-07-29T08:18:17;9.77;;;2.88;;
76953;SDS011;65893;51.698;-0.292;2023-07-29T08:20:56;5.55;;;1.98;;
76953;SDS011;65893;51.698;-0.292;2023-07-29T08:23:28;8.73;;;2.08;;
76953;SDS011;65893;51.698;-0.292;2023-07-29T08:25:54;6.25;;;2.35;;
76953;SDS011;65893;51.698;-0.292;2023-07-29T08:28:24;6.70;;;2.50;;
76953;SDS011;65893;51.698;-0.292;2023-07-29T08:30:50;6.55;;;2.00;;
76953;SDS011;65893;51.698;-0.292;2023-07-29T08:33:16;6.50;;;2.05;;
76953;SDS011;65893;51.698;-0.292;2023-07-29T08:35:42;4.70;;;1.95;;
76953;SDS011;65893;51.698;-0.292;2023-07-29T08:38:08;9.10;;;1.73;;
76953;SDS011;65893;51.698;-0.292;2023-07-29T08:40:34;4.88;;;1.50;;
76953;SDS011;65893;51.698;-0.292;2023-07-29T08:43:03;9.15;;;1.95;;
76953;SDS011;65893;51.698;-0.292;2023-07-29T08:45:34;4.38;;;1.63;;
76953;SDS011;65893;51.698;-0.292;2023-07-29T08:48:01;8.38;;;2.00;;
76953;SDS011;65893;51.698;-0.292;2023-07-29T08:50:29;6.93;;;1.90;;
76953;SDS011;65893;51.698;-0.292;2023-07-29T08:52:55;5.28;;;1.70;;
76953;SDS011;65893;51.698;-0.292;2023-07-29T08:55:21;5.95;;;1.85;;
76953;SDS011;65893;51.698;-0.292;2023-07-29T08:57:48;6.95;;;2.28;;
76953;SDS011;65893;51.698;-0.292;2023-07-29T09:00:14;9.13;;;1.77;;
76953;SDS011;65893;51.698;-0.292;2023-07-29T09:02:40;3.58;;;0.98;;
76953;SDS011;65893;51.698;-0.292;2023-07-29T09:05:06;8.93;;;2.03;;
76953;SDS011;65893;51.698;-0.292;2023-07-29T09:07:32;8.65;;;2.08;;
76953;SDS011;65893;51.698;-0.292;2023-07-29T09:09:59;5.28;;;1.65;;
76953;SDS011;65893;51.698;-0.292;2023-07-29T09:12:25;4.60;;;1.58;;
76953;SDS011;65893;51.698;-0.292;2023-07-29T09:14:52;8.98;;;1.80;;
76953;SDS011;65893;51.698;-0.292;2023-07-29T09:17:19;5.20;;;1.50;;
76953;SDS011;65893;51.698;-0.292;2023-07-29T09:19:47;5.88;;;1.77;;
76953;SDS011;65893;51.698;-0.292;2023-07-29T09:22:17;7.00;;;1.50;;
76953;SDS011;65893;51.698;-0.292;2023-07-29T09:24:44;8.18;;;1.83;;
76953;SDS011;65893;51.698;-0.292;2023-07-29T09:27:22;6.55;;;1.60;;
76953;SDS011;65893;51.698;-0.292;2023-07-29T09:29:49;6.65;;;1.98;;
76953;SDS011;65893;51.698;-0.292;2023-07-29T09:32:19;5.93;;;1.90;;
76953;SDS011;65893;51.698;-0.292;2023-07-29T09:34:45;6.47;;;2.00;;
76953;SDS011;65893;51.698;-0.292;2023-07-29T09:37:18;6.30;;;1.70;;
76953;SDS011;65893;51.698;-0.292;2023-07-29T09:39:44;6.90;;;2.05;;
76953;SDS011;65893;51.698;-0.292;2023-07-29T09:42:17;7.38;;;1.80;;
76953;SDS011;65893;51.698;-0.292;2023-07-29T09:44:44;5.78;;;1.70;;
76953;SDS011;65893;51.698;-0.292;2023-07-29T09:47:18;7.25;;;1.50;;
76953;SDS011;65893;51.698;-0.292;2023-07-29T09:49:44;9.73;;;1.45;;
76953;SDS011;65893;51.698;-0.292;2023-07-29T09:52:10;7.82;;;1.77;;
76953;SDS011;65893;51.698;-0.292;2023-07-29T09:54:38;6.50;;;1.48;;
76953;SDS011;65893;51.698;-0.292;2023-07-29T09:57:05;7.30;;;1.48;;
76953;SDS011;65893;51.698;-0.292;2023-07-29T09:59:35;3.58;;;1.15;;
76953;SDS011;65893;51.698;-0.292;2023-07-29T10:02:01;5.85;;;1.00;;
76953;SDS011;65893;51.698;-0.292;2023-07-29T10:04:28;7.30;;;2.13;;
76953;SDS011;65893;51.698;-0.292;2023-07-29T10:06:54;3.45;;;1.08;;
76953;SDS011;65893;51.698;-0.292;2023-07-29T10:09:21;6.60;;;1.23;;
76953;SDS011;65893;51.698;-0.292;2023-07-29T10:11:49;6.03;;;1.60;;
76953;SDS011;65893;51.698;-0.292;2023-07-29T10:14:18;4.10;;;1.15;;
76953;SDS011;65893;51.698;-0.292;2023-07-29T10:16:44;6.50;;;1.88;;
76953;SDS011;65893;51.698;-0.292;2023-07-29T10:19:11;4.72;;;1.33;;
76953;SDS011;65893;51.698;-0.292;2023-07-29T10:21:39;4.22;;;1.30;;
76953;SDS011;65893;51.698;-0.292;2023-07-29T10:24:09;5.88;;;1.35;;
76953;SDS011;65893;51.698;-0.292;2023-07-29T10:26:37;2.47;;;1.05;;
76953;SDS011;65893;51.698;-0.292;2023-07-29T10:29:04;4.68;;;1.42;;
76953;SDS011;65893;51.698;-0.292;2023-07-29T10:31:33;7.65;;;1.83;;
76953;SDS011;65893;51.698;-0.292;2023-07-29T10:33:59;6.05;;;1.63;;
76953;SDS011;65893;51.698;-0.292;2023-07-29T10:36:26;6.28;;;1.52;;
76953;SDS011;65893;51.698;-0.292;2023-07-29T10:38:52;5.10;;;1.98;;
76953;SDS011;65893;51.698;-0.292;2023-07-29T10:41:18;6.35;;;1.58;;
76953;SDS011;65893;51.698;-0.292;2023-07-29T10:43:44;8.50;;;1.30;;
76953;SDS011;65893;51.698;-0.292;2023-07-29T10:48:43;5.88;;;1.77;;
76953;SDS011;65893;51.698;-0.292;2023-07-29T10:53:47;6.38;;;1.30;;
76953;SDS011;65893;51.698;-0.292;2023-07-29T10:56:13;8.18;;;1.67;;
76953;SDS011;65893;51.698;-0.292;2023-07-29T10:58:50;4.30;;;1.27;;
76953;SDS011;65893;51.698;-0.292;2023-07-29T11:01:26;5.43;;;1.27;;
76953;SDS011;65893;51.698;-0.292;2023-07-29T11:07:23;4.38;;;1.20;;
76953;SDS011;65893;51.698;-0.292;2023-07-29T11:14:53;5.68;;;1.35;;
76953;SDS011;65893;51.698;-0.292;2023-07-29T11:17:19;3.63;;;1.17;;
76953;SDS011;65893;51.698;-0.292;2023-07-29T11:19:45;5.38;;;1.00;;
76953;SDS011;65893;51.698;-0.292;2023-07-29T11:22:12;8.68;;;2.28;;
76953;SDS011;65893;51.698;-0.292;2023-07-29T11:24:38;3.08;;;1.00;;
76953;SDS011;65893;51.698;-0.292;2023-07-29T11:27:10;5.53;;;1.20;;
76953;SDS011;65893;51.698;-0.292;2023-07-29T11:29:36;4.40;;;1.30;;
76953;SDS011;65893;51.698;-0.292;2023-07-29T11:32:02;7.88;;;1.70;;
76953;SDS011;65893;51.698;-0.292;2023-07-29T11:34:32;8.43;;;1.30;;
76953;SDS011;65893;51.698;-0.292;2023-07-29T11:36:58;5.85;;;1.10;;
76953;SDS011;65893;51.698;-0.292;2023-07-29T11:39:24;4.88;;;1.20;;
76953;SDS011;65893;51.698;-0.292;2023-07-29T11:41:50;3.55;;;0.98;;
76953;SDS011;65893;51.698;-0.292;2023-07-29T11:44:19;4.90;;;1.67;;
76953;SDS011;65893;51.698;-0.292;2023-07-29T11:46:45;7.82;;;0.80;;
76953;SDS011;65893;51.698;-0.292;2023-07-29T11:49:13;6.35;;;0.98;;
76953;SDS011;65893;51.698;-0.292;2023-07-29T11:51:41;4.15;;;0.82;;
76953;SDS011;65893;51.698;-0.292;2023-07-29T11:54:07;5.00;;;0.88;;
76953;SDS011;65893;51.698;-0.292;2023-07-29T11:56:34;2.92;;;0.98;;
76953;SDS011;65893;51.698;-0.292;2023-07-29T11:59:01;6.55;;;1.27;;
76953;SDS011;65893;51.698;-0.292;2023-07-29T12:01:28;4.85;;;1.23;;
76953;SDS011;65893;51.698;-0.292;2023-07-29T12:03:55;3.75;;;1.10;;
76953;SDS011;65893;51.698;-0.292;2023-07-29T12:06:22;5.03;;;2.33;;
76953;SDS011;65893;51.698;-0.292;2023-07-29T12:08:49;3.75;;;0.77;;
76953;SDS011;65893;51.698;-0.292;2023-07-29T12:11:15;4.22;;;0.90;;
76953;SDS011;65893;51.698;-0.292;2023-07-29T12:13:42;4.47;;;0.85;;
76953;SDS011;65893;51.698;-0.292;2023-07-29T12:16:08;4.45;;;1.15;;
76953;SDS011;65893;51.698;-0.292;2023-07-29T12:18:34;15.90;;;2.63;;
76953;SDS011;65893;51.698;-0.292;2023-07-29T12:21:01;5.57;;;1.33;;
76953;SDS011;65893;51.698;-0.292;2023-07-29T12:23:28;2.72;;;0.82;;
76953;SDS011;65893;51.698;-0.292;2023-07-29T12:25:58;2.97;;;0.77;;
76953;SDS011;65893;51.698;-0.292;2023-07-29T12:28:24;5.15;;;1.48;;
76953;SDS011;65893;51.698;-0.292;2023-07-29T12:30:54;4.82;;;1.60;;
76953;SDS011;65893;51.698;-0.292;2023-07-29T12:33:32;2.20;;;0.90;;
76953;SDS011;65893;51.698;-0.292;2023-07-29T12:35:59;4.25;;;1.00;;
76953;SDS011;65893;51.698;-0.292;2023-07-29T12:38:28;4.32;;;1.02;;
76953;SDS011;65893;51.698;-0.292;2023-07-29T12:40:55;3.92;;;1.13;;
76953;SDS011;65893;51.698;-0.292;2023-07-29T12:43:21;6.32;;;1.10;;
76953;SDS011;65893;51.698;-0.292;2023-07-29T12:45:50;5.07;;;1.08;;
76953;SDS011;65893;51.698;-0.292;2023-07-29T12:48:16;4.80;;;1.23;;
76953;SDS011;65893;51.698;-0.292;2023-07-29T12:50:42;5.47;;;1.00;;
76953;SDS011;65893;51.698;-0.292;2023-07-29T12:53:08;4.60;;;1.17;;
76953;SDS011;65893;51.698;-0.292;2023-07-29T12:55:37;5.55;;;1.00;;
76953;SDS011;65893;51.698;-0.292;2023-07-29T12:58:04;9.10;;;1.23;;
76953;SDS011;65893;51.698;-0.292;2023-07-29T13:00:30;8.60;;;1.33;;
76953;SDS011;65893;51.698;-0.292;2023-07-29T13:02:56;4.65;;;1.10;;
76953;SDS011;65893;51.698;-0.292;2023-07-29T13:05:22;4.88;;;1.45;;
76953;SDS011;65893;51.698;-0.292;2023-07-29T13:07:48;5.00;;;1.05;;
76953;SDS011;65893;51.698;-0.292;2023-07-29T13:10:14;3.58;;;1.00;;
76953;SDS011;65893;51.698;-0.292;2023-07-29T13:12:40;3.85;;;1.02;;
76953;SDS011;65893;51.698;-0.292;2023-07-29T13:15:06;4.82;;;0.82;;
76953;SDS011;65893;51.698;-0.292;2023-07-29T13:17:33;4.57;;;0.90;;
76953;SDS011;65893;51.698;-0.292;2023-07-29T13:19:59;7.30;;;1.20;;
76953;SDS011;65893;51.698;-0.292;2023-07-29T13:22:25;3.28;;;0.90;;
76953;SDS011;65893;51.698;-0.292;2023-07-29T13:24:51;8.20;;;1.23;;
76953;SDS011;65893;51.698;-0.292;2023-07-29T13:27:17;2.15;;;0.70;;
76953;SDS011;65893;51.698;-0.292;2023-07-29T13:29:43;3.83;;;0.85;;
76953;SDS011;65893;51.698;-0.292;2023-07-29T13:32:09;3.13;;;0.73;;
76953;SDS011;65893;51.698;-0.292;2023-07-29T13:34:35;8.48;;;2.15;;
76953;SDS011;65893;51.698;-0.292;2023-07-29T13:37:01;1.67;;;0.70;;
76953;SDS011;65893;51.698;-0.292;2023-07-29T13:39:27;4.03;;;0.80;;
76953;SDS011;65893;51.698;-0.292;2023-07-29T13:41:53;5.53;;;1.00;;
76953;SDS011;65893;51.698;-0.292;2023-07-29T13:44:19;2.78;;;0.82;;
76953;SDS011;65893;51.698;-0.292;2023-07-29T13:46:45;7.10;;;1.08;;
76953;SDS011;65893;51.698;-0.292;2023-07-29T13:49:11;7.20;;;0.90;;
76953;SDS011;65893;51.698;-0.292;2023-07-29T13:51:37;5.68;;;1.15;;
76953;SDS011;65893;51.698;-0.292;2023-07-29T13:54:03;4.43;;;0.90;;
76953;SDS011;65893;51.698;-0.292;2023-07-29T13:56:29;4.45;;;1.20;;
76953;SDS011;65893;51.698;-0.292;2023-07-29T13:58:55;8.20;;;0.90;;
76953;SDS011;65893;51.698;-0.292;2023-07-29T14:01:21;5.85;;;0.95;;
76953;SDS011;65893;51.698;-0.292;2023-07-29T14:03:49;4.43;;;1.10;;
76953;SDS011;65893;51.698;-0.292;2023-07-29T14:06:15;8.07;;;1.08;;
76953;SDS011;65893;51.698;-0.292;2023-07-29T14:08:41;6.25;;;1.15;;
76953;SDS011;65893;51.698;-0.292;2023-07-29T14:11:07;4.82;;;1.00;;
76953;SDS011;65893;51.698;-0.292;2023-07-29T14:13:33;4.75;;;1.58;;
76953;SDS011;65893;51.698;-0.292;2023-07-29T14:16:00;5.75;;;1.00;;
76953;SDS011;65893;51.698;-0.292;2023-07-29T14:18:27;6.90;;;1.20;;
76953;SDS011;65893;51.698;-0.292;2023-07-29T14:20:53;12.75;;;2.20;;
76953;SDS011;65893;51.698;-0.292;2023-07-29T14:23:19;9.57;;;1.70;;
76953;SDS011;65893;51.698;-0.292;2023-07-29T14:25:45;5.13;;;1.45;;
76953;SDS011;65893;51.698;-0.292;2023-07-29T14:28:12;4.47;;;1.00;;
76953;SDS011;65893;51.698;-0.292;2023-07-29T14:30:38;6.93;;;0.95;;
76953;SDS011;65893;51.698;-0.292;2023-07-29T14:33:06;4.57;;;1.42;;
76953;SDS011;65893;51.698;-0.292;2023-07-29T14:35:32;3.47;;;0.82;;
76953;SDS011;65893;51.698;-0.292;2023-07-29T14:37:57;8.30;;;1.13;;
76953;SDS011;65893;51.698;-0.292;2023-07-29T14:40:23;7.82;;;1.20;;
76953;SDS011;65893;51.698;-0.292;2023-07-29T14:42:49;6.90;;;1.00;;
76953;SDS011;65893;51.698;-0.292;2023-07-29T14:45:15;6.90;;;1.00;;
76953;SDS011;65893;51.698;-0.292;2023-07-29T14:47:41;5.55;;;1.00;;
76953;SDS011;65893;51.698;-0.292;2023-07-29T14:50:08;8.25;;;1.35;;
76953;SDS011;65893;51.698;-0.292;2023-07-29T14:52:34;8.20;;;1.17;;
76953;SDS011;65893;51.698;-0.292;2023-07-29T14:55:00;5.82;;;1.10;;
76953;SDS011;65893;51.698;-0.292;2023-07-29T14:57:26;8.75;;;1.48;;
76953;SDS011;65893;51.698;-0.292;2023-07-29T14:59:52;4.47;;;1.25;;
76953;SDS011;65893;51.698;-0.292;2023-07-29T15:02:18;4.65;;;1.52;;
76953;SDS011;65893;51.698;-0.292;2023-07-29T15:04:44;4.97;;;1.65;;
76953;SDS011;65893;51.698;-0.292;2023-07-29T15:07:10;5.65;;;1.10;;
76953;SDS011;65893;51.698;-0.292;2023-07-29T15:09:36;3.92;;;0.90;;
76953;SDS011;65893;51.698;-0.292;2023-07-29T15:12:02;6.65;;;1.23;;
76953;SDS011;65893;51.698;-0.292;2023-07-29T15:14:28;5.35;;;1.00;;
76953;SDS011;65893;51.698;-0.292;2023-07-29T15:16:54;2.47;;;1.00;;
76953;SDS011;65893;51.698;-0.292;2023-07-29T15:19:20;4.13;;;0.80;;
76953;SDS011;65893;51.698;-0.292;2023-07-29T15:21:46;3.22;;;0.90;;
76953;SDS011;65893;51.698;-0.292;2023-07-29T15:24:12;6.78;;;0.75;;
76953;SDS011;65893;51.698;-0.292;2023-07-29T15:26:38;5.80;;;1.13;;
76953;SDS011;65893;51.698;-0.292;2023-07-29T15:29:04;3.75;;;0.85;;
76953;SDS011;65893;51.698;-0.292;2023-07-29T15:31:32;5.38;;;0.90;;
76953;SDS011;65893;51.698;-0.292;2023-07-29T15:33:58;5.65;;;0.90;;
76953;SDS011;65893;51.698;-0.292;2023-07-29T15:36:24;5.78;;;1.00;;
76953;SDS011;65893;51.698;-0.292;2023-07-29T15:38:50;5.72;;;1.25;;
76953;SDS011;65893;51.698;-0.292;2023-07-29T15:41:16;2.92;;;0.70;;
76953;SDS011;65893;51.698;-0.292;2023-07-29T15:43:42;5.03;;;1.05;;
76953;SDS011;65893;51.698;-0.292;2023-07-29T15:46:08;6.82;;;1.23;;
76953;SDS011;65893;51.698;-0.292;2023-07-29T15:48:34;3.80;;;0.98;;
76953;SDS011;65893;51.698;-0.292;2023-07-29T15:51:00;9.57;;;1.23;;
76953;SDS011;65893;51.698;-0.292;2023-07-29T15:53:26;4.85;;;1.13;;
76953;SDS011;65893;51.698;-0.292;2023-07-29T15:55:52;2.85;;;0.57;;
76953;SDS011;65893;51.698;-0.292;2023-07-29T15:58:18;6.25;;;1.15;;
76953;SDS011;65893;51.698;-0.292;2023-07-29T16:00:44;7.30;;;1.00;;
76953;SDS011;65893;51.698;-0.292;2023-07-29T16:03:10;4.60;;;0.93;;
76953;SDS011;65893;51.698;-0.292;2023-07-29T16:05:36;7.57;;;1.15;;
76953;SDS011;65893;51.698;-0.292;2023-07-29T16:08:02;3.25;;;0.70;;
76953;SDS011;65893;51.698;-0.292;2023-07-29T16:10:28;4.03;;;0.70;;
76953;SDS011;65893;51.698;-0.292;2023-07-29T16:12:54;4.80;;;0.88;;
76953;SDS011;65893;51.698;-0.292;2023-07-29T16:15:20;4.05;;;0.90;;
76953;SDS011;65893;51.698;-0.292;2023-07-29T16:17:46;4.05;;;1.00;;
76953;SDS011;65893;51.698;-0.292;2023-07-29T16:20:16;6.57;;;0.80;;
76953;SDS011;65893;51.698;-0.292;2023-07-29T16:22:44;4.20;;;0.88;;
76953;SDS011;65893;51.698;-0.292;2023-07-29T16:25:10;3.90;;;1.00;;